createdAt,value
2023-03-31T00:00:12.016Z,100350.00
2023-03-31T00:02:42.695Z,100347.00
2023-03-31T00:05:12.047Z,100343.00
2023-03-31T00:07:40.710Z,100354.00
2023-03-31T00:12:45.066Z,100346.00
2023-03-31T00:15:14.296Z,100340.00
2023-03-31T00:17:44.340Z,100347.00
2023-03-31T00:20:14.906Z,100346.00
2023-03-31T00:22:46.861Z,100345.00
2023-03-31T00:25:17.139Z,100340.00
2023-03-31T00:27:46.745Z,100326.00
2023-03-31T00:30:16.505Z,100335.00
2023-03-31T00:32:47.268Z,100331.00
2023-03-31T00:35:16.002Z,100316.00
2023-03-31T00:37:45.967Z,100331.00
2023-03-31T00:40:14.985Z,100318.00
2023-03-31T00:42:44.360Z,100319.00
2023-03-31T00:45:30.190Z,100314.00
2023-03-31T00:48:10.405Z,100310.00
2023-03-31T00:50:47.824Z,100302.00
2023-03-31T00:53:22.693Z,100304.00
2023-03-31T00:55:57.033Z,100295.00
2023-03-31T00:58:28.721Z,100297.00
2023-03-31T01:01:00.417Z,100308.00
2023-03-31T01:03:33.613Z,100309.00
2023-03-31T01:06:07.293Z,100303.00
2023-03-31T01:08:38.361Z,100302.00
2023-03-31T01:11:10.706Z,100303.00
2023-03-31T01:13:43.099Z,100303.00
2023-03-31T01:16:11.923Z,100296.00
2023-03-31T01:18:46.587Z,100294.00
2023-03-31T01:22:13.086Z,100297.00
2023-03-31T01:25:18.604Z,100291.00
2023-03-31T01:28:19.192Z,100288.00
2023-03-31T01:31:55.731Z,100285.00
2023-03-31T01:35:14.048Z,100288.00
2023-03-31T01:38:30.207Z,100282.00
2023-03-31T01:41:31.469Z,100279.00
2023-03-31T01:44:10.701Z,100282.00
2023-03-31T01:46:49.116Z,100275.00
2023-03-31T01:49:26.299Z,100279.00
2023-03-31T01:52:04.777Z,100269.00
2023-03-31T01:54:45.650Z,100276.00
2023-03-31T01:57:22.073Z,100272.00
2023-03-31T02:00:04.310Z,100268.00
2023-03-31T02:02:48.921Z,100266.00
2023-03-31T02:05:25.945Z,100255.00
2023-03-31T02:07:59.234Z,100263.00
2023-03-31T02:10:34.428Z,100259.00
2023-03-31T02:13:09.272Z,100254.00
2023-03-31T02:15:41.643Z,100252.00
2023-03-31T02:18:17.357Z,100256.00
2023-03-31T02:20:51.212Z,100252.00
2023-03-31T02:23:29.546Z,100244.00
2023-03-31T02:26:05.484Z,100253.00
2023-03-31T02:28:36.789Z,100246.00
2023-03-31T02:31:26.278Z,100243.00
2023-03-31T02:33:55.272Z,100244.00
2023-03-31T02:36:24.312Z,100239.00
2023-03-31T02:39:00.438Z,100239.00
2023-03-31T02:41:29.872Z,100237.00
2023-03-31T02:44:00.603Z,100225.00
2023-03-31T02:46:30.048Z,100230.00
2023-03-31T02:49:06.286Z,100234.00
2023-03-31T02:52:11.016Z,100232.00
2023-03-31T02:55:21.362Z,100237.00
2023-03-31T02:58:15.505Z,100239.00
2023-03-31T03:01:04.636Z,100236.00
2023-03-31T03:03:48.610Z,100239.00
2023-03-31T03:06:38.520Z,100231.00
2023-03-31T03:09:37.622Z,100231.00
2023-03-31T03:12:20.853Z,100236.00
2023-03-31T03:14:57.986Z,100226.00
2023-03-31T03:17:33.917Z,100221.00
2023-03-31T03:20:08.340Z,100214.00
2023-03-31T03:22:37.711Z,100225.00
2023-03-31T03:25:09.533Z,100228.00
2023-03-31T03:27:38.498Z,100223.00
2023-03-31T03:30:10.803Z,100223.00
2023-03-31T03:32:41.505Z,100214.00
2023-03-31T03:35:11.267Z,100213.00
2023-03-31T03:37:40.042Z,100214.00
2023-03-31T03:40:10.728Z,100208.00
2023-03-31T03:42:39.660Z,100211.00
2023-03-31T03:45:09.403Z,100209.00
2023-03-31T03:47:38.230Z,100198.00
2023-03-31T03:50:10.788Z,100204.00
2023-03-31T03:52:39.383Z,100210.00
2023-03-31T03:55:08.858Z,100203.00
2023-03-31T03:57:37.545Z,100203.00
2023-03-31T04:00:10.707Z,100205.00
2023-03-31T04:02:40.637Z,100196.00
2023-03-31T04:05:11.484Z,100201.00
2023-03-31T04:07:40.170Z,100192.00
2023-03-31T04:10:10.704Z,100201.00
2023-03-31T04:12:39.472Z,100205.00
2023-03-31T04:15:09.704Z,100194.00
2023-03-31T04:17:38.557Z,100193.00
2023-03-31T04:20:11.786Z,100192.00
2023-03-31T04:22:41.723Z,100185.00
2023-03-31T04:25:16.503Z,100177.00
2023-03-31T04:27:50.737Z,100182.00
2023-03-31T04:30:23.777Z,100179.00
2023-03-31T04:32:55.546Z,100177.00
2023-03-31T04:35:38.712Z,100179.00
2023-03-31T04:38:08.941Z,100172.00
2023-03-31T04:40:37.681Z,100161.00
2023-03-31T04:43:06.811Z,100156.00
2023-03-31T04:45:35.572Z,100159.00
2023-03-31T04:48:04.280Z,100163.00
2023-03-31T04:50:34.591Z,100185.00
2023-03-31T04:53:03.890Z,100176.00
2023-03-31T04:55:32.896Z,100166.00
2023-03-31T04:58:01.573Z,100176.00
2023-03-31T05:00:30.377Z,100177.00
2023-03-31T05:03:01.077Z,100165.00
2023-03-31T05:05:30.650Z,100172.00
2023-03-31T05:08:00.676Z,100177.00
2023-03-31T05:10:30.372Z,100164.00
2023-03-31T05:12:59.474Z,100146.00
2023-03-31T05:15:28.336Z,100150.00
2023-03-31T05:17:59.030Z,100138.00
2023-03-31T05:20:27.651Z,100159.00
2023-03-31T05:22:56.265Z,100155.00
2023-03-31T05:25:29.416Z,100153.00
2023-03-31T05:27:58.106Z,100149.00
2023-03-31T05:30:27.265Z,100152.00
2023-03-31T05:32:56.306Z,100158.00
2023-03-31T05:35:25.553Z,100158.00
2023-03-31T05:37:54.307Z,100156.00
2023-03-31T05:40:22.980Z,100149.00
2023-03-31T05:42:53.016Z,100145.00
2023-03-31T05:45:21.761Z,100150.00
2023-03-31T05:47:51.074Z,100152.00
2023-03-31T05:50:19.977Z,100158.00
2023-03-31T05:52:48.646Z,100157.00
2023-03-31T05:55:18.704Z,100142.00
2023-03-31T05:57:47.657Z,100139.00
2023-03-31T06:00:19.182Z,100141.00
2023-03-31T06:02:48.046Z,100140.00
2023-03-31T06:05:18.065Z,100132.00
2023-03-31T06:07:48.950Z,100130.00
2023-03-31T06:10:18.188Z,100129.00
2023-03-31T06:12:47.239Z,100138.00
2023-03-31T06:15:22.818Z,100146.00
2023-03-31T06:17:52.861Z,100141.00
2023-03-31T06:20:28.327Z,100140.00
2023-03-31T06:22:57.551Z,100130.00
2023-03-31T06:25:26.366Z,100143.00
2023-03-31T06:27:55.004Z,100141.00
2023-03-31T06:30:25.250Z,100140.00
2023-03-31T06:32:54.196Z,100139.00
2023-03-31T06:35:23.208Z,100130.00
2023-03-31T06:37:52.822Z,100116.00
2023-03-31T06:40:24.171Z,100126.00
2023-03-31T06:42:53.142Z,100129.00
2023-03-31T06:45:21.946Z,100120.00
2023-03-31T06:47:52.352Z,100122.00
2023-03-31T06:50:21.557Z,100117.00
2023-03-31T06:52:52.872Z,100125.00
2023-03-31T06:55:21.895Z,100122.00
2023-03-31T06:57:50.527Z,100131.00
2023-03-31T07:00:23.022Z,100122.00
2023-03-31T07:02:53.403Z,100125.00
2023-03-31T07:05:26.872Z,100110.00
2023-03-31T07:07:56.522Z,100117.00
2023-03-31T07:10:27.041Z,100107.00
2023-03-31T07:12:55.973Z,100114.00
2023-03-31T07:15:26.268Z,100120.00
2023-03-31T07:18:02.215Z,100109.00
2023-03-31T07:20:32.964Z,100112.00
2023-03-31T07:23:06.959Z,100107.00
2023-03-31T07:25:36.706Z,100113.00
2023-03-31T07:28:07.993Z,100119.00
2023-03-31T07:30:36.900Z,100118.00
2023-03-31T07:33:07.677Z,100104.00
2023-03-31T07:35:40.591Z,100103.00
2023-03-31T07:38:10.575Z,100104.00
2023-03-31T07:40:40.677Z,100111.00
2023-03-31T07:43:10.287Z,100099.00
2023-03-31T07:45:44.006Z,100107.00
2023-03-31T07:48:22.685Z,100110.00
2023-03-31T07:50:52.051Z,100098.00
2023-03-31T07:53:29.139Z,100098.00
2023-03-31T07:55:57.790Z,100094.00
2023-03-31T07:58:27.347Z,100093.00
2023-03-31T08:01:00.152Z,100105.00
2023-03-31T08:03:32.091Z,100108.00
2023-03-31T08:06:01.146Z,100107.00
2023-03-31T08:08:30.236Z,100108.00
2023-03-31T08:10:59.331Z,100103.00
2023-03-31T08:13:28.209Z,100105.00
2023-03-31T08:15:59.300Z,100108.00
2023-03-31T08:18:27.983Z,100108.00
2023-03-31T08:20:57.998Z,100102.00
2023-03-31T08:23:26.698Z,100107.00
2023-03-31T08:25:55.302Z,100106.00
2023-03-31T08:28:24.052Z,100110.00
2023-03-31T08:30:52.697Z,100108.00
2023-03-31T08:33:21.704Z,100109.00
2023-03-31T08:35:50.403Z,100103.00
2023-03-31T08:38:21.037Z,100102.00
2023-03-31T08:40:49.754Z,100106.00
2023-03-31T08:43:29.062Z,100104.00
2023-03-31T08:45:57.992Z,100093.00
2023-03-31T08:48:31.067Z,100089.00
2023-03-31T08:51:09.283Z,100088.00
2023-03-31T08:53:48.326Z,100085.00
2023-03-31T08:56:20.908Z,100092.00
2023-03-31T08:58:51.888Z,100086.00
2023-03-31T09:01:44.404Z,100081.00
2023-03-31T09:04:47.277Z,100094.00
2023-03-31T09:07:28.297Z,100086.00
2023-03-31T09:10:12.257Z,100075.00
2023-03-31T09:12:54.368Z,100083.00
2023-03-31T09:15:29.787Z,100083.00
2023-03-31T09:18:08.482Z,100084.00
2023-03-31T09:20:43.899Z,100081.00
2023-03-31T09:23:27.311Z,100082.00
2023-03-31T09:26:00.881Z,100086.00
2023-03-31T09:28:36.447Z,100069.00
2023-03-31T09:31:14.685Z,100068.00
2023-03-31T09:33:47.873Z,100067.00
2023-03-31T09:36:19.543Z,100079.00
2023-03-31T09:38:48.723Z,100075.00
2023-03-31T09:41:20.249Z,100065.00
2023-03-31T09:43:51.904Z,100077.00
2023-03-31T09:46:31.673Z,100064.00
2023-03-31T09:49:08.070Z,100063.00
2023-03-31T09:51:42.034Z,100057.00
2023-03-31T09:54:21.315Z,100069.00
2023-03-31T09:56:54.154Z,100073.00
2023-03-31T09:59:25.684Z,100069.00
2023-03-31T10:02:00.560Z,100087.00
2023-03-31T10:04:33.388Z,100065.00
2023-03-31T10:07:06.012Z,100078.00
2023-03-31T10:09:39.684Z,100076.00
2023-03-31T10:12:20.275Z,100067.00
2023-03-31T10:14:52.442Z,100065.00
2023-03-31T10:17:24.009Z,100068.00
2023-03-31T10:19:55.403Z,100065.00
2023-03-31T10:22:33.746Z,100058.00
2023-03-31T10:25:17.204Z,100070.00
2023-03-31T10:27:51.096Z,100065.00
2023-03-31T10:30:25.367Z,100064.00
2023-03-31T10:32:54.898Z,100059.00
2023-03-31T10:35:28.255Z,100067.00
2023-03-31T10:38:00.729Z,100075.00
2023-03-31T10:40:32.901Z,100076.00
2023-03-31T10:43:11.331Z,100068.00
2023-03-31T10:45:46.553Z,100062.00
2023-03-31T10:49:13.572Z,100060.00
2023-03-31T10:51:51.115Z,100054.00
2023-03-31T10:54:20.216Z,100046.00
2023-03-31T10:56:54.394Z,100046.00
2023-03-31T10:59:48.140Z,100047.00
2023-03-31T11:03:05.055Z,100044.00
2023-03-31T11:05:43.697Z,100046.00
2023-03-31T11:08:38.761Z,100047.00
2023-03-31T11:11:31.287Z,100042.00
2023-03-31T11:14:09.295Z,100036.00
2023-03-31T11:16:50.449Z,100036.00
2023-03-31T11:19:40.085Z,100043.00
2023-03-31T11:22:17.800Z,100047.00
2023-03-31T11:25:13.558Z,100032.00
2023-03-31T11:28:25.078Z,100037.00
2023-03-31T11:31:04.730Z,100038.00
2023-03-31T11:33:56.276Z,100035.00
2023-03-31T11:37:02.332Z,100017.00
2023-03-31T11:39:48.649Z,100027.00
2023-03-31T11:42:24.358Z,100029.00
2023-03-31T11:45:01.498Z,100032.00
2023-03-31T11:47:38.842Z,100027.00
2023-03-31T11:50:16.387Z,100026.00
2023-03-31T11:52:55.792Z,100037.00
2023-03-31T11:55:31.822Z,100026.00
2023-03-31T11:58:08.586Z,100030.00
2023-03-31T12:00:43.124Z,100037.00
2023-03-31T12:03:17.956Z,100035.00
2023-03-31T12:05:53.220Z,100033.00
2023-03-31T12:08:33.258Z,100037.00
2023-03-31T12:11:09.431Z,100029.00
2023-03-31T12:13:49.584Z,100035.00
2023-03-31T12:16:26.976Z,100036.00
2023-03-31T12:19:08.021Z,100036.00
2023-03-31T12:21:43.824Z,100032.00
2023-03-31T12:24:14.843Z,100030.00
2023-03-31T12:26:58.064Z,100024.00
2023-03-31T12:29:34.597Z,100027.00
2023-03-31T12:32:13.419Z,100023.00
2023-03-31T12:34:49.294Z,100015.00
2023-03-31T12:38:10.512Z,100013.00
2023-03-31T12:40:52.447Z,100008.00
2023-03-31T12:44:13.405Z,100017.00
2023-03-31T12:47:34.532Z,100005.00
2023-03-31T12:50:37.535Z,100007.00
2023-03-31T12:53:23.570Z,100009.00
2023-03-31T12:55:57.989Z,100008.00
2023-03-31T12:58:47.469Z,100008.00
2023-03-31T13:01:22.209Z,100009.00
2023-03-31T13:04:21.470Z,99996.00
2023-03-31T13:06:59.836Z,99992.00
2023-03-31T13:09:53.002Z,99998.00
2023-03-31T13:12:25.704Z,100003.00
2023-03-31T13:15:00.518Z,99998.00
2023-03-31T13:17:37.863Z,99996.00
2023-03-31T13:20:36.689Z,99992.00
2023-03-31T13:23:19.577Z,99990.00
2023-03-31T13:25:52.829Z,99982.00
2023-03-31T13:28:34.630Z,99981.00
2023-03-31T13:31:11.953Z,99987.00
2023-03-31T13:33:57.231Z,99992.00
2023-03-31T13:37:13.408Z,99996.00
2023-03-31T13:40:07.971Z,99992.00
2023-03-31T13:43:10.086Z,99976.00
2023-03-31T13:45:55.666Z,99992.00
2023-03-31T13:48:59.051Z,99992.00
2023-03-31T13:53:00.775Z,99988.00
2023-03-31T13:56:07.341Z,99974.00
2023-03-31T13:59:04.388Z,99978.00
2023-03-31T14:02:01.609Z,99982.00
2023-03-31T14:05:29.658Z,99978.00
2023-03-31T14:08:04.738Z,99987.00
2023-03-31T14:10:43.178Z,99983.00
2023-03-31T14:13:16.967Z,99980.00
2023-03-31T14:15:52.883Z,99974.00
2023-03-31T14:18:30.002Z,99975.00
2023-03-31T14:21:22.066Z,99976.00
2023-03-31T14:24:06.518Z,99978.00
2023-03-31T14:26:54.639Z,99967.00
2023-03-31T14:29:38.372Z,99967.00
2023-03-31T14:32:35.960Z,99969.00
2023-03-31T14:35:43.182Z,99971.00
2023-03-31T14:38:18.122Z,99972.00
2023-03-31T14:40:50.009Z,99972.00
2023-03-31T14:43:29.275Z,99967.00
2023-03-31T14:46:05.610Z,99976.00
2023-03-31T14:48:47.328Z,99968.00
2023-03-31T14:51:19.203Z,99971.00
2023-03-31T14:53:48.128Z,99967.00
2023-03-31T14:56:24.579Z,99967.00
2023-03-31T14:59:00.956Z,99961.00
2023-03-31T15:01:35.857Z,99959.00
2023-03-31T15:04:11.795Z,99962.00
2023-03-31T15:06:43.572Z,99960.00
2023-03-31T15:09:21.965Z,99947.00
2023-03-31T15:11:58.653Z,99952.00
2023-03-31T15:14:34.520Z,99945.00
2023-03-31T15:17:03.264Z,99953.00
2023-03-31T15:19:36.940Z,99945.00
2023-03-31T15:22:16.429Z,99952.00
2023-03-31T15:24:49.666Z,99948.00
2023-03-31T15:27:37.062Z,99938.00
2023-03-31T15:30:17.418Z,99939.00
2023-03-31T15:32:47.060Z,99938.00
2023-03-31T15:35:24.690Z,99933.00
2023-03-31T15:37:58.974Z,99940.00
2023-03-31T15:40:41.273Z,99937.00
2023-03-31T15:43:29.206Z,99931.00
2023-03-31T15:46:01.236Z,99931.00
2023-03-31T15:48:37.332Z,99929.00
2023-03-31T15:51:29.020Z,99929.00
2023-03-31T15:54:01.599Z,99929.00
2023-03-31T15:57:04.687Z,99931.00
2023-03-31T16:00:08.590Z,99936.00
2023-03-31T16:02:50.111Z,99916.00
2023-03-31T16:05:54.362Z,99928.00
2023-03-31T16:08:52.596Z,99931.00
2023-03-31T16:11:35.064Z,99924.00
2023-03-31T16:14:19.296Z,99936.00
2023-03-31T16:16:56.670Z,99933.00
2023-03-31T16:19:33.967Z,99935.00
2023-03-31T16:22:16.591Z,99928.00
2023-03-31T16:24:51.149Z,99939.00
2023-03-31T16:27:42.025Z,99931.00
2023-03-31T16:30:15.879Z,99946.00
2023-03-31T16:33:05.244Z,99942.00
2023-03-31T16:35:39.298Z,99946.00
2023-03-31T16:38:12.125Z,99944.00
2023-03-31T16:40:55.028Z,99950.00
2023-03-31T16:43:25.976Z,99959.00
2023-03-31T16:46:07.682Z,99960.00
2023-03-31T16:48:37.834Z,99966.00
2023-03-31T16:51:08.628Z,99953.00
2023-03-31T16:53:38.309Z,99965.00
2023-03-31T16:56:13.094Z,99952.00
2023-03-31T16:58:43.763Z,99965.00
2023-03-31T17:01:15.825Z,99962.00
2023-03-31T17:03:45.144Z,99962.00
2023-03-31T17:06:24.357Z,99968.00
2023-03-31T17:08:57.973Z,99968.00
2023-03-31T17:11:44.056Z,99968.00
2023-03-31T17:14:18.941Z,99968.00
2023-03-31T17:16:50.564Z,99973.00
2023-03-31T17:19:37.192Z,99969.00
2023-03-31T17:22:08.794Z,99980.00
2023-03-31T17:24:37.616Z,99977.00
2023-03-31T17:27:07.937Z,99984.00
2023-03-31T17:29:37.283Z,99980.00
2023-03-31T17:32:07.989Z,99976.00
2023-03-31T17:34:39.890Z,99968.00
2023-03-31T17:37:09.139Z,99968.00
2023-03-31T17:39:43.064Z,99968.00
2023-03-31T17:42:20.776Z,99968.00
2023-03-31T17:44:51.753Z,99969.00
2023-03-31T17:47:21.980Z,99964.00
2023-03-31T17:49:53.730Z,99974.00
2023-03-31T17:52:29.697Z,99981.00
2023-03-31T17:54:58.709Z,99981.00
2023-03-31T17:57:29.904Z,99980.00
2023-03-31T17:59:59.013Z,99983.00
2023-03-31T18:02:28.345Z,99968.00
2023-03-31T18:04:58.414Z,99968.00
2023-03-31T18:07:30.716Z,99968.00
2023-03-31T18:10:04.756Z,99968.00
2023-03-31T18:12:37.631Z,99960.00
2023-03-31T18:15:10.999Z,99955.00
2023-03-31T18:17:46.746Z,99962.00
2023-03-31T18:20:16.006Z,99962.00
2023-03-31T18:22:47.864Z,99965.00
2023-03-31T18:25:18.751Z,99965.00
2023-03-31T18:27:49.248Z,99960.00
2023-03-31T18:30:21.415Z,99962.00
2023-03-31T18:32:53.439Z,99961.00
2023-03-31T18:35:23.451Z,99968.00
2023-03-31T18:37:54.024Z,99964.00
2023-03-31T18:40:25.130Z,99976.00
2023-03-31T18:42:55.517Z,99966.00
2023-03-31T18:45:25.836Z,99970.00
2023-03-31T18:47:54.714Z,99969.00
2023-03-31T18:50:24.016Z,99973.00
2023-03-31T18:52:54.479Z,99965.00
2023-03-31T18:55:24.983Z,99968.00
2023-03-31T18:57:56.561Z,99967.00
2023-03-31T19:00:37.959Z,99961.00
2023-03-31T19:03:13.763Z,99968.00
2023-03-31T19:08:46.885Z,99966.00
2023-03-31T19:11:18.044Z,99967.00
2023-03-31T19:14:01.589Z,99960.00
2023-03-31T19:16:32.488Z,99959.00
2023-03-31T19:19:04.230Z,99954.00
2023-03-31T19:21:37.106Z,99962.00
2023-03-31T19:24:14.112Z,99958.00
2023-03-31T19:26:46.003Z,99967.00
2023-03-31T19:29:20.704Z,99968.00
2023-03-31T19:31:52.921Z,99967.00
2023-03-31T19:34:38.783Z,99965.00
2023-03-31T19:37:11.897Z,99957.00
2023-03-31T19:39:47.903Z,99961.00
2023-03-31T19:42:22.956Z,99948.00
2023-03-31T19:44:59.337Z,99948.00
2023-03-31T19:47:33.995Z,99946.00
2023-03-31T19:50:03.964Z,99942.00
2023-03-31T19:52:34.162Z,99949.00
2023-03-31T19:55:10.512Z,99941.00
2023-03-31T19:57:55.910Z,99949.00
2023-03-31T20:00:28.927Z,99939.00
2023-03-31T20:03:00.943Z,99940.00
2023-03-31T20:05:34.244Z,99949.00
2023-03-31T20:08:04.573Z,99947.00
2023-03-31T20:10:39.692Z,99937.00
2023-03-31T20:13:10.237Z,99946.00
2023-03-31T20:15:44.803Z,99942.00
2023-03-31T20:18:16.092Z,99938.00
2023-03-31T20:21:00.580Z,99938.00
2023-03-31T20:23:35.394Z,99939.00
2023-03-31T20:26:09.049Z,99936.00
2023-03-31T20:28:41.098Z,99955.00
2023-03-31T20:31:17.113Z,99945.00
2023-03-31T20:33:46.612Z,99946.00
2023-03-31T20:36:22.911Z,99943.00
2023-03-31T20:38:55.190Z,99949.00
2023-03-31T20:41:31.424Z,99946.00
2023-03-31T20:44:04.064Z,99957.00
2023-03-31T20:46:37.622Z,99947.00
2023-03-31T20:49:07.819Z,99951.00
2023-03-31T20:51:42.990Z,99943.00
2023-03-31T20:54:24.259Z,99948.00
2023-03-31T20:56:53.475Z,99950.00
2023-03-31T20:59:28.590Z,99942.00
2023-03-31T21:02:10.557Z,99953.00
2023-03-31T21:04:44.504Z,99952.00
2023-03-31T21:07:35.172Z,99956.00
2023-03-31T21:10:22.289Z,99946.00
2023-03-31T21:12:53.351Z,99949.00
2023-03-31T21:15:29.325Z,99954.00
2023-03-31T21:18:07.230Z,99946.00
2023-03-31T21:20:40.379Z,99946.00
2023-03-31T21:23:09.097Z,99943.00
2023-03-31T21:25:45.317Z,99952.00
2023-03-31T21:28:16.320Z,99942.00
2023-03-31T21:30:54.504Z,99952.00
2023-03-31T21:33:26.177Z,99945.00
2023-03-31T21:35:58.889Z,99939.00
2023-03-31T21:38:29.048Z,99944.00
2023-03-31T21:41:07.039Z,99940.00
2023-03-31T21:43:48.247Z,99945.00
2023-03-31T21:47:08.888Z,99934.00
2023-03-31T21:49:40.625Z,99937.00
2023-03-31T21:52:14.229Z,99937.00
2023-03-31T21:54:48.984Z,99929.00
2023-03-31T21:57:25.557Z,99933.00
2023-03-31T22:00:02.421Z,99935.00
2023-03-31T22:02:53.848Z,99938.00
2023-03-31T22:05:44.408Z,99926.00
2023-03-31T22:08:14.533Z,99935.00
2023-03-31T22:10:53.182Z,99924.00
2023-03-31T22:13:30.556Z,99920.00
2023-03-31T22:16:02.397Z,99922.00
2023-03-31T22:18:34.002Z,99926.00
2023-03-31T22:21:20.517Z,99916.00
2023-03-31T22:23:50.175Z,99906.00
2023-03-31T22:26:19.192Z,99908.00
2023-03-31T22:28:48.759Z,99911.00
2023-03-31T22:31:19.300Z,99912.00
2023-03-31T22:34:02.162Z,99912.00
2023-03-31T22:36:32.546Z,99908.00
2023-03-31T22:39:02.435Z,99903.00
2023-03-31T22:41:31.221Z,99909.00
2023-03-31T22:44:00.446Z,99906.00
2023-03-31T22:46:31.074Z,99903.00
2023-03-31T22:49:01.396Z,99898.00
2023-03-31T22:51:34.596Z,99893.00
2023-03-31T22:54:03.850Z,99897.00
2023-03-31T22:56:32.530Z,99900.00
2023-03-31T22:59:06.346Z,99898.00
2023-03-31T23:01:35.953Z,99893.00
2023-03-31T23:04:07.066Z,99896.00
2023-03-31T23:06:40.045Z,99901.00
2023-03-31T23:09:10.009Z,99903.00
2023-03-31T23:11:39.118Z,99900.00
2023-03-31T23:14:09.151Z,99898.00
2023-03-31T23:16:54.757Z,99887.00
2023-03-31T23:19:28.061Z,99899.00
2023-03-31T23:22:13.934Z,99893.00
2023-03-31T23:24:50.956Z,99907.00
2023-03-31T23:27:34.501Z,99899.00
2023-03-31T23:30:03.199Z,99897.00
2023-03-31T23:32:32.937Z,99893.00
2023-03-31T23:35:01.598Z,99912.00
2023-03-31T23:37:33.251Z,99891.00
2023-03-31T23:40:02.173Z,99893.00
2023-03-31T23:42:31.668Z,99901.00
2023-03-31T23:45:00.394Z,99900.00
2023-03-31T23:47:29.868Z,99904.00
2023-03-31T23:49:58.524Z,99904.00
2023-03-31T23:52:27.430Z,99899.00
2023-03-31T23:54:57.605Z,99897.00
2023-03-31T23:57:26.363Z,99899.00
2023-03-31T23:59:55.032Z,99895.00
